sensor_id;sensor_type;location;lat;lon;timestamp;temperature;humidity
83289;DHT22;73193;50.866;5.420;2024-01-27T00:00:24;3.50;62.60
83289;DHT22;73193;50.866;5.420;2024-01-27T00:01:55;3.50;62.80
83289;DHT22;73193;50.866;5.420;2024-01-27T00:03:25;3.50;62.90
83289;DHT22;73193;50.866;5.420;2024-01-27T00:04:56;3.50;63.20
83289;DHT22;73193;50.866;5.420;2024-01-27T00:06:27;3.50;63.20
83289;DHT22;73193;50.866;5.420;2024-01-27T00:07:57;3.40;63.30
83289;DHT22;73193;50.866;5.420;2024-01-27T00:09:28;3.30;63.60
83289;DHT22;73193;50.866;5.420;2024-01-27T00:11:01;3.30;63.60
83289;DHT22;73193;50.866;5.420;2024-01-27T00:12:32;3.30;63.90
83289;DHT22;73193;50.866;5.420;2024-01-27T00:14:03;3.30;63.30
83289;DHT22;73193;50.866;5.420;2024-01-27T00:15:36;3.30;62.90
83289;DHT22;73193;50.866;5.420;2024-01-27T00:17:09;3.30;63.00
83289;DHT22;73193;50.866;5.420;2024-01-27T00:18:40;3.30;63.30
83289;DHT22;73193;50.866;5.420;2024-01-27T00:20:11;3.30;63.50
83289;DHT22;73193;50.866;5.420;2024-01-27T00:21:42;3.30;63.20
83289;DHT22;73193;50.866;5.420;2024-01-27T00:23:13;3.30;62.50
83289;DHT22;73193;50.866;5.420;2024-01-27T00:24:44;3.20;62.70
83289;DHT22;73193;50.866;5.420;2024-01-27T00:26:14;3.20;62.50
83289;DHT22;73193;50.866;5.420;2024-01-27T00:27:45;3.10;63.00
83289;DHT22;73193;50.866;5.420;2024-01-27T00:29:15;3.10;63.30
83289;DHT22;73193;50.866;5.420;2024-01-27T00:30:46;3.10;63.10
83289;DHT22;73193;50.866;5.420;2024-01-27T00:32:17;3.10;62.90
83289;DHT22;73193;50.866;5.420;2024-01-27T00:33:49;3.10;63.00
83289;DHT22;73193;50.866;5.420;2024-01-27T00:35:19;3.10;63.30
83289;DHT22;73193;50.866;5.420;2024-01-27T00:36:50;3.00;63.80
83289;DHT22;73193;50.866;5.420;2024-01-27T00:38:21;3.00;63.30
83289;DHT22;73193;50.866;5.420;2024-01-27T00:39:51;2.90;64.30
83289;DHT22;73193;50.866;5.420;2024-01-27T00:41:22;2.90;64.10
83289;DHT22;73193;50.866;5.420;2024-01-27T00:42:53;2.90;64.00
83289;DHT22;73193;50.866;5.420;2024-01-27T00:44:24;2.90;64.00
83289;DHT22;73193;50.866;5.420;2024-01-27T00:45:55;2.90;63.80
83289;DHT22;73193;50.866;5.420;2024-01-27T00:47:26;2.90;63.20
83289;DHT22;73193;50.866;5.420;2024-01-27T00:48:57;2.90;63.70
83289;DHT22;73193;50.866;5.420;2024-01-27T00:50:27;2.90;64.10
83289;DHT22;73193;50.866;5.420;2024-01-27T00:51:58;2.80;64.10
83289;DHT22;73193;50.866;5.420;2024-01-27T00:53:29;2.80;64.40
83289;DHT22;73193;50.866;5.420;2024-01-27T00:54:59;2.80;64.50
83289;DHT22;73193;50.866;5.420;2024-01-27T00:56:30;2.80;64.80
83289;DHT22;73193;50.866;5.420;2024-01-27T00:58:01;2.70;64.80
83289;DHT22;73193;50.866;5.420;2024-01-27T00:59:31;2.70;64.70
83289;DHT22;73193;50.866;5.420;2024-01-27T01:01:02;2.80;64.30
83289;DHT22;73193;50.866;5.420;2024-01-27T01:02:34;2.70;64.40
83289;DHT22;73193;50.866;5.420;2024-01-27T01:04:04;2.70;64.70
83289;DHT22;73193;50.866;5.420;2024-01-27T01:05:35;2.70;64.80
83289;DHT22;73193;50.866;5.420;2024-01-27T01:07:06;2.70;64.20
83289;DHT22;73193;50.866;5.420;2024-01-27T01:08:37;2.80;63.70
83289;DHT22;73193;50.866;5.420;2024-01-27T01:10:07;2.70;64.50
83289;DHT22;73193;50.866;5.420;2024-01-27T01:11:38;2.80;64.90
83289;DHT22;73193;50.866;5.420;2024-01-27T01:13:09;2.80;64.80
83289;DHT22;73193;50.866;5.420;2024-01-27T01:14:40;2.80;64.60
83289;DHT22;73193;50.866;5.420;2024-01-27T01:16:10;2.60;65.20
83289;DHT22;73193;50.866;5.420;2024-01-27T01:17:41;2.70;64.80
83289;DHT22;73193;50.866;5.420;2024-01-27T01:19:12;2.80;64.40
83289;DHT22;73193;50.866;5.420;2024-01-27T01:20:42;2.70;64.40
83289;DHT22;73193;50.866;5.420;2024-01-27T01:22:13;2.70;64.70
83289;DHT22;73193;50.866;5.420;2024-01-27T01:23:44;2.70;65.00
83289;DHT22;73193;50.866;5.420;2024-01-27T01:25:14;2.70;64.70
83289;DHT22;73193;50.866;5.420;2024-01-27T01:26:45;2.70;65.00
83289;DHT22;73193;50.866;5.420;2024-01-27T01:28:16;2.70;65.40
83289;DHT22;73193;50.866;5.420;2024-01-27T01:29:46;2.70;64.70
83289;DHT22;73193;50.866;5.420;2024-01-27T01:31:17;2.70;63.90
83289;DHT22;73193;50.866;5.420;2024-01-27T01:32:48;2.70;64.40
83289;DHT22;73193;50.866;5.420;2024-01-27T01:34:19;2.70;64.30
83289;DHT22;73193;50.866;5.420;2024-01-27T01:35:49;2.70;64.60
83289;DHT22;73193;50.866;5.420;2024-01-27T01:37:20;2.70;63.90
83289;DHT22;73193;50.866;5.420;2024-01-27T01:38:50;2.70;63.90
83289;DHT22;73193;50.866;5.420;2024-01-27T01:40:21;2.70;64.60
83289;DHT22;73193;50.866;5.420;2024-01-27T01:41:52;2.80;64.30
83289;DHT22;73193;50.866;5.420;2024-01-27T01:43:23;2.80;64.10
83289;DHT22;73193;50.866;5.420;2024-01-27T01:44:53;2.70;63.90
83289;DHT22;73193;50.866;5.420;2024-01-27T01:46:24;2.70;63.90
83289;DHT22;73193;50.866;5.420;2024-01-27T01:47:55;2.70;63.70
83289;DHT22;73193;50.866;5.420;2024-01-27T01:49:26;2.70;63.50
83289;DHT22;73193;50.866;5.420;2024-01-27T01:50:58;2.70;63.60
83289;DHT22;73193;50.866;5.420;2024-01-27T01:52:30;2.70;63.20
83289;DHT22;73193;50.866;5.420;2024-01-27T01:54:01;2.50;64.10
83289;DHT22;73193;50.866;5.420;2024-01-27T01:55:32;2.50;64.40
83289;DHT22;73193;50.866;5.420;2024-01-27T01:57:03;2.50;64.50
83289;DHT22;73193;50.866;5.420;2024-01-27T01:58:34;2.50;64.80
83289;DHT22;73193;50.866;5.420;2024-01-27T02:00:05;2.50;65.00
83289;DHT22;73193;50.866;5.420;2024-01-27T02:01:36;2.50;64.70
83289;DHT22;73193;50.866;5.420;2024-01-27T02:03:11;2.40;65.40
83289;DHT22;73193;50.866;5.420;2024-01-27T02:04:43;2.40;65.70
83289;DHT22;73193;50.866;5.420;2024-01-27T02:06:14;2.50;64.90
83289;DHT22;73193;50.866;5.420;2024-01-27T02:07:45;2.50;64.70
83289;DHT22;73193;50.866;5.420;2024-01-27T02:09:15;2.50;64.60
83289;DHT22;73193;50.866;5.420;2024-01-27T02:10:46;2.50;64.90
83289;DHT22;73193;50.866;5.420;2024-01-27T02:12:17;2.50;65.00
83289;DHT22;73193;50.866;5.420;2024-01-27T02:13:48;2.50;64.30
83289;DHT22;73193;50.866;5.420;2024-01-27T02:15:18;2.50;64.90
83289;DHT22;73193;50.866;5.420;2024-01-27T02:16:52;2.50;65.10
83289;DHT22;73193;50.866;5.420;2024-01-27T02:18:22;2.50;64.20
83289;DHT22;73193;50.866;5.420;2024-01-27T02:19:53;2.50;64.10
83289;DHT22;73193;50.866;5.420;2024-01-27T02:21:24;2.50;64.60
83289;DHT22;73193;50.866;5.420;2024-01-27T02:22:54;2.50;64.40
83289;DHT22;73193;50.866;5.420;2024-01-27T02:24:25;2.50;64.80
83289;DHT22;73193;50.866;5.420;2024-01-27T02:25:57;2.50;64.50
83289;DHT22;73193;50.866;5.420;2024-01-27T02:27:28;2.50;64.60
83289;DHT22;73193;50.866;5.420;2024-01-27T02:28:58;2.50;64.50
83289;DHT22;73193;50.866;5.420;2024-01-27T02:30:29;2.50;63.90
83289;DHT22;73193;50.866;5.420;2024-01-27T02:32:00;2.50;63.60
83289;DHT22;73193;50.866;5.420;2024-01-27T02:33:30;2.50;63.90
83289;DHT22;73193;50.866;5.420;2024-01-27T02:35:01;2.50;63.70
83289;DHT22;73193;50.866;5.420;2024-01-27T02:36:32;2.40;63.60
83289;DHT22;73193;50.866;5.420;2024-01-27T02:38:02;2.40;63.80
83289;DHT22;73193;50.866;5.420;2024-01-27T02:39:33;2.40;63.60
83289;DHT22;73193;50.866;5.420;2024-01-27T02:41:04;2.40;63.90
83289;DHT22;73193;50.866;5.420;2024-01-27T02:42:35;2.40;64.00
83289;DHT22;73193;50.866;5.420;2024-01-27T02:44:06;2.30;64.50
83289;DHT22;73193;50.866;5.420;2024-01-27T02:45:36;2.20;65.30
83289;DHT22;73193;50.866;5.420;2024-01-27T02:47:07;2.20;65.20
83289;DHT22;73193;50.866;5.420;2024-01-27T02:48:41;2.30;64.50
83289;DHT22;73193;50.866;5.420;2024-01-27T02:50:15;2.20;64.30
83289;DHT22;73193;50.866;5.420;2024-01-27T02:51:45;2.20;64.50
83289;DHT22;73193;50.866;5.420;2024-01-27T02:53:16;2.20;64.80
83289;DHT22;73193;50.866;5.420;2024-01-27T02:54:47;2.20;64.70
83289;DHT22;73193;50.866;5.420;2024-01-27T02:56:18;2.30;64.50
83289;DHT22;73193;50.866;5.420;2024-01-27T02:57:48;2.20;65.30
83289;DHT22;73193;50.866;5.420;2024-01-27T02:59:19;2.20;65.10
83289;DHT22;73193;50.866;5.420;2024-01-27T03:00:49;2.20;64.80
83289;DHT22;73193;50.866;5.420;2024-01-27T03:02:20;2.30;64.70
83289;DHT22;73193;50.866;5.420;2024-01-27T03:03:51;2.30;64.50
83289;DHT22;73193;50.866;5.420;2024-01-27T03:05:21;2.30;64.90
83289;DHT22;73193;50.866;5.420;2024-01-27T03:06:52;2.30;64.80
83289;DHT22;73193;50.866;5.420;2024-01-27T03:08:23;2.30;65.10
83289;DHT22;73193;50.866;5.420;2024-01-27T03:09:53;2.40;64.70
83289;DHT22;73193;50.866;5.420;2024-01-27T03:11:24;2.40;64.40
83289;DHT22;73193;50.866;5.420;2024-01-27T03:12:55;2.40;64.70
83289;DHT22;73193;50.866;5.420;2024-01-27T03:14:26;2.40;64.70
83289;DHT22;73193;50.866;5.420;2024-01-27T03:15:57;2.30;65.10
83289;DHT22;73193;50.866;5.420;2024-01-27T03:17:28;2.30;65.30
83289;DHT22;73193;50.866;5.420;2024-01-27T03:18:58;2.30;65.00
83289;DHT22;73193;50.866;5.420;2024-01-27T03:20:29;2.40;64.90
83289;DHT22;73193;50.866;5.420;2024-01-27T03:22:01;2.40;64.40
83289;DHT22;73193;50.866;5.420;2024-01-27T03:23:32;2.40;64.70
83289;DHT22;73193;50.866;5.420;2024-01-27T03:25:03;2.50;64.50
83289;DHT22;73193;50.866;5.420;2024-01-27T03:26:34;2.50;64.10
83289;DHT22;73193;50.866;5.420;2024-01-27T03:28:04;2.50;64.40
83289;DHT22;73193;50.866;5.420;2024-01-27T03:29:35;2.50;64.60
83289;DHT22;73193;50.866;5.420;2024-01-27T03:31:06;2.50;64.10
83289;DHT22;73193;50.866;5.420;2024-01-27T03:32:36;2.40;64.20
83289;DHT22;73193;50.866;5.420;2024-01-27T03:34:07;2.30;65.00
83289;DHT22;73193;50.866;5.420;2024-01-27T03:35:39;2.40;64.70
83289;DHT22;73193;50.866;5.420;2024-01-27T03:37:10;2.40;64.30
83289;DHT22;73193;50.866;5.420;2024-01-27T03:38:41;2.40;64.20
83289;DHT22;73193;50.866;5.420;2024-01-27T03:40:12;2.40;64.50
83289;DHT22;73193;50.866;5.420;2024-01-27T03:41:42;2.40;64.10
83289;DHT22;73193;50.866;5.420;2024-01-27T03:43:13;2.40;64.70
83289;DHT22;73193;50.866;5.420;2024-01-27T03:44:44;2.40;64.70
83289;DHT22;73193;50.866;5.420;2024-01-27T03:46:15;2.40;64.40
83289;DHT22;73193;50.866;5.420;2024-01-27T03:47:45;2.30;64.10
83289;DHT22;73193;50.866;5.420;2024-01-27T03:49:16;2.30;64.20
83289;DHT22;73193;50.866;5.420;2024-01-27T03:50:47;2.30;63.90
83289;DHT22;73193;50.866;5.420;2024-01-27T03:52:17;2.30;64.30
83289;DHT22;73193;50.866;5.420;2024-01-27T03:53:48;2.30;64.60
83289;DHT22;73193;50.866;5.420;2024-01-27T03:55:19;2.20;64.30
83289;DHT22;73193;50.866;5.420;2024-01-27T03:56:49;2.20;64.00
83289;DHT22;73193;50.866;5.420;2024-01-27T03:58:20;2.20;63.50
83289;DHT22;73193;50.866;5.420;2024-01-27T03:59:51;2.20;63.70
83289;DHT22;73193;50.866;5.420;2024-01-27T04:01:21;2.20;63.40
83289;DHT22;73193;50.866;5.420;2024-01-27T04:02:52;2.20;64.00
83289;DHT22;73193;50.866;5.420;2024-01-27T04:04:23;2.10;64.80
83289;DHT22;73193;50.866;5.420;2024-01-27T04:05:54;2.10;64.60
83289;DHT22;73193;50.866;5.420;2024-01-27T04:07:25;2.10;64.60
83289;DHT22;73193;50.866;5.420;2024-01-27T04:08:56;2.10;64.30
83289;DHT22;73193;50.866;5.420;2024-01-27T04:10:26;2.00;64.30
83289;DHT22;73193;50.866;5.420;2024-01-27T04:11:57;2.10;64.60
83289;DHT22;73193;50.866;5.420;2024-01-27T04:13:28;2.10;64.20
83289;DHT22;73193;50.866;5.420;2024-01-27T04:14:59;2.10;64.20
83289;DHT22;73193;50.866;5.420;2024-01-27T04:16:30;2.10;64.70
83289;DHT22;73193;50.866;5.420;2024-01-27T04:18:00;2.10;65.30
83289;DHT22;73193;50.866;5.420;2024-01-27T04:19:31;2.00;65.80
83289;DHT22;73193;50.866;5.420;2024-01-27T04:21:02;2.00;65.50
83289;DHT22;73193;50.866;5.420;2024-01-27T04:22:34;2.00;65.10
83289;DHT22;73193;50.866;5.420;2024-01-27T04:24:04;2.00;65.00
83289;DHT22;73193;50.866;5.420;2024-01-27T04:25:35;2.00;65.30
83289;DHT22;73193;50.866;5.420;2024-01-27T04:27:06;1.90;65.30
83289;DHT22;73193;50.866;5.420;2024-01-27T04:28:37;1.90;64.90
83289;DHT22;73193;50.866;5.420;2024-01-27T04:30:08;1.90;64.80
83289;DHT22;73193;50.866;5.420;2024-01-27T04:31:40;1.90;64.50
83289;DHT22;73193;50.866;5.420;2024-01-27T04:33:12;1.90;64.60
83289;DHT22;73193;50.866;5.420;2024-01-27T04:34:43;1.90;64.80
83289;DHT22;73193;50.866;5.420;2024-01-27T04:36:13;1.80;64.80
83289;DHT22;73193;50.866;5.420;2024-01-27T04:37:44;1.80;64.40
83289;DHT22;73193;50.866;5.420;2024-01-27T04:39:15;1.90;64.20
83289;DHT22;73193;50.866;5.420;2024-01-27T04:40:46;1.80;63.70
83289;DHT22;73193;50.866;5.420;2024-01-27T04:42:17;1.80;64.20
83289;DHT22;73193;50.866;5.420;2024-01-27T04:43:47;1.80;64.30
83289;DHT22;73193;50.866;5.420;2024-01-27T04:45:18;1.80;64.40
83289;DHT22;73193;50.866;5.420;2024-01-27T04:46:48;1.70;64.50
83289;DHT22;73193;50.866;5.420;2024-01-27T04:48:19;1.70;64.60
83289;DHT22;73193;50.866;5.420;2024-01-27T04:49:50;1.60;65.00
83289;DHT22;73193;50.866;5.420;2024-01-27T04:51:21;1.60;65.30
83289;DHT22;73193;50.866;5.420;2024-01-27T04:52:52;1.70;64.60
83289;DHT22;73193;50.866;5.420;2024-01-27T04:54:23;1.70;64.70
83289;DHT22;73193;50.866;5.420;2024-01-27T04:55:53;1.70;64.50
83289;DHT22;73193;50.866;5.420;2024-01-27T04:57:24;1.70;64.40
83289;DHT22;73193;50.866;5.420;2024-01-27T04:58:54;1.60;64.40
83289;DHT22;73193;50.866;5.420;2024-01-27T05:00:25;1.60;64.90
83289;DHT22;73193;50.866;5.420;2024-01-27T05:01:58;1.60;64.90
83289;DHT22;73193;50.866;5.420;2024-01-27T05:03:28;1.60;65.40
83289;DHT22;73193;50.866;5.420;2024-01-27T05:04:59;1.60;65.20
83289;DHT22;73193;50.866;5.420;2024-01-27T05:06:30;1.60;65.10
83289;DHT22;73193;50.866;5.420;2024-01-27T05:08:01;1.60;65.00
83289;DHT22;73193;50.866;5.420;2024-01-27T05:09:34;1.60;65.50
83289;DHT22;73193;50.866;5.420;2024-01-27T05:11:04;1.50;65.20
83289;DHT22;73193;50.866;5.420;2024-01-27T05:12:35;1.50;65.20
83289;DHT22;73193;50.866;5.420;2024-01-27T05:14:05;1.60;64.90
83289;DHT22;73193;50.866;5.420;2024-01-27T05:15:36;1.60;65.10
83289;DHT22;73193;50.866;5.420;2024-01-27T05:17:07;1.60;65.00
83289;DHT22;73193;50.866;5.420;2024-01-27T05:18:37;1.60;65.30
83289;DHT22;73193;50.866;5.420;2024-01-27T05:20:08;1.60;65.10
83289;DHT22;73193;50.866;5.420;2024-01-27T05:21:39;1.50;65.00
83289;DHT22;73193;50.866;5.420;2024-01-27T05:23:09;1.50;65.40
83289;DHT22;73193;50.866;5.420;2024-01-27T05:24:40;1.50;65.40
83289;DHT22;73193;50.866;5.420;2024-01-27T05:26:11;1.50;65.10
83289;DHT22;73193;50.866;5.420;2024-01-27T05:27:42;1.50;65.20
83289;DHT22;73193;50.866;5.420;2024-01-27T05:29:12;1.50;65.10
83289;DHT22;73193;50.866;5.420;2024-01-27T05:30:46;1.40;65.50
83289;DHT22;73193;50.866;5.420;2024-01-27T05:32:16;1.50;65.40
83289;DHT22;73193;50.866;5.420;2024-01-27T05:33:47;1.50;64.90
83289;DHT22;73193;50.866;5.420;2024-01-27T05:35:18;1.50;65.40
83289;DHT22;73193;50.866;5.420;2024-01-27T05:36:49;1.50;65.60
83289;DHT22;73193;50.866;5.420;2024-01-27T05:38:20;1.50;65.40
83289;DHT22;73193;50.866;5.420;2024-01-27T05:39:50;1.40;65.20
83289;DHT22;73193;50.866;5.420;2024-01-27T05:41:26;1.40;65.40
83289;DHT22;73193;50.866;5.420;2024-01-27T05:42:56;1.50;65.40
83289;DHT22;73193;50.866;5.420;2024-01-27T05:44:27;1.50;65.20
83289;DHT22;73193;50.866;5.420;2024-01-27T05:45:58;1.40;65.50
83289;DHT22;73193;50.866;5.420;2024-01-27T05:47:28;1.40;65.70
83289;DHT22;73193;50.866;5.420;2024-01-27T05:48:59;1.40;65.30
83289;DHT22;73193;50.866;5.420;2024-01-27T05:50:33;1.40;65.20
83289;DHT22;73193;50.866;5.420;2024-01-27T05:52:05;1.40;65.30
83289;DHT22;73193;50.866;5.420;2024-01-27T05:53:36;1.50;66.40
83289;DHT22;73193;50.866;5.420;2024-01-27T05:55:07;1.50;66.20
83289;DHT22;73193;50.866;5.420;2024-01-27T05:56:38;1.50;66.00
83289;DHT22;73193;50.866;5.420;2024-01-27T05:58:09;1.50;65.50
83289;DHT22;73193;50.866;5.420;2024-01-27T05:59:40;1.50;66.00
83289;DHT22;73193;50.866;5.420;2024-01-27T06:01:10;1.50;65.70
83289;DHT22;73193;50.866;5.420;2024-01-27T06:02:41;1.60;65.00
83289;DHT22;73193;50.866;5.420;2024-01-27T06:04:12;1.60;65.60
83289;DHT22;73193;50.866;5.420;2024-01-27T06:05:45;1.60;65.70
83289;DHT22;73193;50.866;5.420;2024-01-27T06:07:16;1.70;65.60
83289;DHT22;73193;50.866;5.420;2024-01-27T06:08:46;1.60;65.70
83289;DHT22;73193;50.866;5.420;2024-01-27T06:10:17;1.60;65.70
83289;DHT22;73193;50.866;5.420;2024-01-27T06:11:48;1.60;65.40
83289;DHT22;73193;50.866;5.420;2024-01-27T06:13:19;1.60;65.40
83289;DHT22;73193;50.866;5.420;2024-01-27T06:14:49;1.60;66.10
83289;DHT22;73193;50.866;5.420;2024-01-27T06:16:20;1.60;66.20
83289;DHT22;73193;50.866;5.420;2024-01-27T06:17:51;1.60;65.90
83289;DHT22;73193;50.866;5.420;2024-01-27T06:19:21;1.70;65.80
83289;DHT22;73193;50.866;5.420;2024-01-27T06:20:52;1.70;65.70
83289;DHT22;73193;50.866;5.420;2024-01-27T06:22:23;1.70;66.00
83289;DHT22;73193;50.866;5.420;2024-01-27T06:23:53;1.70;66.10
83289;DHT22;73193;50.866;5.420;2024-01-27T06:25:24;1.80;65.70
83289;DHT22;73193;50.866;5.420;2024-01-27T06:26:55;1.80;65.50
83289;DHT22;73193;50.866;5.420;2024-01-27T06:28:25;1.70;66.00
83289;DHT22;73193;50.866;5.420;2024-01-27T06:29:56;1.80;66.00
83289;DHT22;73193;50.866;5.420;2024-01-27T06:31:26;1.80;65.80
83289;DHT22;73193;50.866;5.420;2024-01-27T06:32:57;1.80;65.50
83289;DHT22;73193;50.866;5.420;2024-01-27T06:34:28;1.80;66.20
83289;DHT22;73193;50.866;5.420;2024-01-27T06:35:59;1.80;66.60
83289;DHT22;73193;50.866;5.420;2024-01-27T06:37:29;1.80;66.90
83289;DHT22;73193;50.866;5.420;2024-01-27T06:39:00;1.80;66.70
83289;DHT22;73193;50.866;5.420;2024-01-27T06:40:31;1.90;66.40
83289;DHT22;73193;50.866;5.420;2024-01-27T06:42:01;1.90;66.30
83289;DHT22;73193;50.866;5.420;2024-01-27T06:43:32;1.90;66.40
83289;DHT22;73193;50.866;5.420;2024-01-27T06:45:03;2.00;66.10
83289;DHT22;73193;50.866;5.420;2024-01-27T06:46:34;1.90;66.20
83289;DHT22;73193;50.866;5.420;2024-01-27T06:48:05;2.00;66.20
83289;DHT22;73193;50.866;5.420;2024-01-27T06:49:36;2.00;66.50
83289;DHT22;73193;50.866;5.420;2024-01-27T06:51:07;2.10;66.50
83289;DHT22;73193;50.866;5.420;2024-01-27T06:52:38;2.10;66.10
83289;DHT22;73193;50.866;5.420;2024-01-27T06:54:09;2.10;66.10
83289;DHT22;73193;50.866;5.420;2024-01-27T06:55:39;2.10;65.80
83289;DHT22;73193;50.866;5.420;2024-01-27T06:57:19;2.20;65.80
83289;DHT22;73193;50.866;5.420;2024-01-27T06:58:53;2.20;65.90
83289;DHT22;73193;50.866;5.420;2024-01-27T07:00:23;2.10;65.50
83289;DHT22;73193;50.866;5.420;2024-01-27T07:01:54;2.10;66.00
83289;DHT22;73193;50.866;5.420;2024-01-27T07:03:25;2.10;66.40
83289;DHT22;73193;50.866;5.420;2024-01-27T07:04:56;2.10;66.50
83289;DHT22;73193;50.866;5.420;2024-01-27T07:06:26;2.10;66.20
83289;DHT22;73193;50.866;5.420;2024-01-27T07:07:57;2.10;66.20
83289;DHT22;73193;50.866;5.420;2024-01-27T07:09:31;2.00;66.60
83289;DHT22;73193;50.866;5.420;2024-01-27T07:11:04;2.00;66.50
83289;DHT22;73193;50.866;5.420;2024-01-27T07:12:35;2.00;67.30
83289;DHT22;73193;50.866;5.420;2024-01-27T07:14:05;2.10;67.00
83289;DHT22;73193;50.866;5.420;2024-01-27T07:15:38;2.20;66.70
83289;DHT22;73193;50.866;5.420;2024-01-27T07:17:09;2.20;66.30
83289;DHT22;73193;50.866;5.420;2024-01-27T07:18:40;2.20;66.60
83289;DHT22;73193;50.866;5.420;2024-01-27T07:20:11;2.20;66.50
83289;DHT22;73193;50.866;5.420;2024-01-27T07:21:42;2.20;66.80
83289;DHT22;73193;50.866;5.420;2024-01-27T07:23:12;2.30;66.20
83289;DHT22;73193;50.866;5.420;2024-01-27T07:24:43;2.30;66.20
83289;DHT22;73193;50.866;5.420;2024-01-27T07:26:15;2.30;66.60
83289;DHT22;73193;50.866;5.420;2024-01-27T07:27:45;2.30;66.10
83289;DHT22;73193;50.866;5.420;2024-01-27T07:29:16;2.30;66.30
83289;DHT22;73193;50.866;5.420;2024-01-27T07:30:47;2.40;66.20
83289;DHT22;73193;50.866;5.420;2024-01-27T07:32:18;2.30;66.10
83289;DHT22;73193;50.866;5.420;2024-01-27T07:33:48;2.40;66.00
83289;DHT22;73193;50.866;5.420;2024-01-27T07:35:19;2.40;65.90
83289;DHT22;73193;50.866;5.420;2024-01-27T07:36:50;2.40;65.90
83289;DHT22;73193;50.866;5.420;2024-01-27T07:38:20;2.30;66.40
83289;DHT22;73193;50.866;5.420;2024-01-27T07:39:51;2.40;66.20
83289;DHT22;73193;50.866;5.420;2024-01-27T07:41:22;2.40;66.20
83289;DHT22;73193;50.866;5.420;2024-01-27T07:42:52;2.50;66.20
83289;DHT22;73193;50.866;5.420;2024-01-27T07:44:23;2.50;66.10
83289;DHT22;73193;50.866;5.420;2024-01-27T07:45:53;2.50;66.20
83289;DHT22;73193;50.866;5.420;2024-01-27T07:47:25;2.50;66.50
83289;DHT22;73193;50.866;5.420;2024-01-27T07:48:55;2.50;66.00
83289;DHT22;73193;50.866;5.420;2024-01-27T07:50:26;2.50;66.10
83289;DHT22;73193;50.866;5.420;2024-01-27T07:51:56;2.60;65.60
83289;DHT22;73193;50.866;5.420;2024-01-27T07:53:27;2.60;65.70
83289;DHT22;73193;50.866;5.420;2024-01-27T07:54:58;2.60;65.70
83289;DHT22;73193;50.866;5.420;2024-01-27T07:56:28;2.60;65.50
83289;DHT22;73193;50.866;5.420;2024-01-27T07:57:59;2.70;65.80
83289;DHT22;73193;50.866;5.420;2024-01-27T07:59:30;2.70;65.40
83289;DHT22;73193;50.866;5.420;2024-01-27T08:01:00;2.70;65.50
83289;DHT22;73193;50.866;5.420;2024-01-27T08:02:31;2.70;65.90
83289;DHT22;73193;50.866;5.420;2024-01-27T08:04:02;2.70;66.00
83289;DHT22;73193;50.866;5.420;2024-01-27T08:05:33;2.70;66.10
83289;DHT22;73193;50.866;5.420;2024-01-27T08:07:04;2.80;65.70
83289;DHT22;73193;50.866;5.420;2024-01-27T08:08:40;2.80;66.20
83289;DHT22;73193;50.866;5.420;2024-01-27T08:10:11;2.90;66.10
83289;DHT22;73193;50.866;5.420;2024-01-27T08:11:42;2.90;66.10
83289;DHT22;73193;50.866;5.420;2024-01-27T08:13:12;3.00;66.00
83289;DHT22;73193;50.866;5.420;2024-01-27T08:14:43;3.10;65.90
83289;DHT22;73193;50.866;5.420;2024-01-27T08:16:14;3.10;65.50
83289;DHT22;73193;50.866;5.420;2024-01-27T08:17:44;3.20;65.10
83289;DHT22;73193;50.866;5.420;2024-01-27T08:19:16;3.30;65.20
83289;DHT22;73193;50.866;5.420;2024-01-27T08:20:50;3.30;65.50
83289;DHT22;73193;50.866;5.420;2024-01-27T08:22:21;3.30;65.20
83289;DHT22;73193;50.866;5.420;2024-01-27T08:23:52;3.40;65.10
83289;DHT22;73193;50.866;5.420;2024-01-27T08:25:22;3.50;65.20
83289;DHT22;73193;50.866;5.420;2024-01-27T08:26:53;3.50;65.00
83289;DHT22;73193;50.866;5.420;2024-01-27T08:28:24;3.60;64.90
83289;DHT22;73193;50.866;5.420;2024-01-27T08:29:54;3.60;65.00
83289;DHT22;73193;50.866;5.420;2024-01-27T08:31:25;3.70;64.70
83289;DHT22;73193;50.866;5.420;2024-01-27T08:32:56;3.80;64.70
83289;DHT22;73193;50.866;5.420;2024-01-27T08:34:26;3.90;64.20
83289;DHT22;73193;50.866;5.420;2024-01-27T08:35:57;4.00;64.00
83289;DHT22;73193;50.866;5.420;2024-01-27T08:37:28;4.00;64.20
83289;DHT22;73193;50.866;5.420;2024-01-27T08:38:58;4.20;64.00
83289;DHT22;73193;50.866;5.420;2024-01-27T08:40:29;4.20;63.80
83289;DHT22;73193;50.866;5.420;2024-01-27T08:42:00;4.30;63.70
83289;DHT22;73193;50.866;5.420;2024-01-27T08:43:30;4.30;63.40
83289;DHT22;73193;50.866;5.420;2024-01-27T08:45:01;4.30;64.00
83289;DHT22;73193;50.866;5.420;2024-01-27T08:46:32;4.30;63.50
83289;DHT22;73193;50.866;5.420;2024-01-27T08:48:02;4.30;63.60
83289;DHT22;73193;50.866;5.420;2024-01-27T08:49:33;4.20;64.10
83289;DHT22;73193;50.866;5.420;2024-01-27T08:51:04;4.40;64.10
83289;DHT22;73193;50.866;5.420;2024-01-27T08:52:34;4.50;63.60
83289;DHT22;73193;50.866;5.420;2024-01-27T08:54:05;4.70;63.10
83289;DHT22;73193;50.866;5.420;2024-01-27T08:55:36;4.70;63.20
83289;DHT22;73193;50.866;5.420;2024-01-27T08:57:06;4.90;63.00
83289;DHT22;73193;50.866;5.420;2024-01-27T08:58:37;4.90;62.50
83289;DHT22;73193;50.866;5.420;2024-01-27T09:00:08;4.80;62.80
83289;DHT22;73193;50.866;5.420;2024-01-27T09:01:39;4.80;62.30
83289;DHT22;73193;50.866;5.420;2024-01-27T09:03:10;4.80;62.90
83289;DHT22;73193;50.866;5.420;2024-01-27T09:04:42;4.80;63.00
83289;DHT22;73193;50.866;5.420;2024-01-27T09:06:13;4.90;62.90
83289;DHT22;73193;50.866;5.420;2024-01-27T09:07:44;5.00;62.60
83289;DHT22;73193;50.866;5.420;2024-01-27T09:09:15;5.00;62.90
83289;DHT22;73193;50.866;5.420;2024-01-27T09:10:45;5.10;62.50
83289;DHT22;73193;50.866;5.420;2024-01-27T09:12:16;5.10;62.30
83289;DHT22;73193;50.866;5.420;2024-01-27T09:13:47;5.20;62.90
83289;DHT22;73193;50.866;5.420;2024-01-27T09:15:19;5.30;62.50
83289;DHT22;73193;50.866;5.420;2024-01-27T09:16:49;5.30;62.10
83289;DHT22;73193;50.866;5.420;2024-01-27T09:18:22;5.30;62.70
83289;DHT22;73193;50.866;5.420;2024-01-27T09:19:53;5.30;62.10
83289;DHT22;73193;50.866;5.420;2024-01-27T09:21:24;5.30;62.00
83289;DHT22;73193;50.866;5.420;2024-01-27T09:23:14;5.30;62.40
83289;DHT22;73193;50.866;5.420;2024-01-27T09:24:45;5.20;62.50
83289;DHT22;73193;50.866;5.420;2024-01-27T09:26:16;5.30;62.40
83289;DHT22;73193;50.866;5.420;2024-01-27T09:27:48;5.30;62.00
83289;DHT22;73193;50.866;5.420;2024-01-27T09:29:19;5.30;62.10
83289;DHT22;73193;50.866;5.420;2024-01-27T09:30:50;5.30;62.20
83289;DHT22;73193;50.866;5.420;2024-01-27T09:32:21;5.50;62.40
83289;DHT22;73193;50.866;5.420;2024-01-27T09:33:53;5.50;62.30
83289;DHT22;73193;50.866;5.420;2024-01-27T09:35:24;5.70;61.80
83289;DHT22;73193;50.866;5.420;2024-01-27T09:36:54;5.70;61.70
83289;DHT22;73193;50.866;5.420;2024-01-27T09:38:25;5.70;62.00
83289;DHT22;73193;50.866;5.420;2024-01-27T09:39:55;5.70;62.00
83289;DHT22;73193;50.866;5.420;2024-01-27T09:41:30;5.70;61.90
83289;DHT22;73193;50.866;5.420;2024-01-27T09:43:02;5.70;61.90